sensor_id;sensor_type;location;lat;lon;timestamp;P1;durP1;ratioP1;P2;durP2;ratioP2
64688;SDS011;62504;46.070;14.492;2022-09-09T00:01:08;26.75;;;16.55;;
64688;SDS011;62504;46.070;14.492;2022-09-09T00:03:57;26.73;;;15.13;;
64688;SDS011;62504;46.070;14.492;2022-09-09T00:06:42;24.67;;;15.20;;
64688;SDS011;62504;46.070;14.492;2022-09-09T00:09:21;26.00;;;15.30;;
64688;SDS011;62504;46.070;14.492;2022-09-09T00:17:38;25.67;;;15.33;;
64688;SDS011;62504;46.070;14.492;2022-09-09T00:20:28;31.70;;;16.90;;
64688;SDS011;62504;46.070;14.492;2022-09-09T00:31:29;29.77;;;17.03;;
64688;SDS011;62504;46.070;14.492;2022-09-09T00:34:00;28.67;;;16.17;;
64688;SDS011;62504;46.070;14.492;2022-09-09T00:36:39;29.13;;;15.77;;
64688;SDS011;62504;46.070;14.492;2022-09-09T00:39:08;27.00;;;15.73;;
64688;SDS011;62504;46.070;14.492;2022-09-09T00:42:05;32.53;;;16.67;;
64688;SDS011;62504;46.070;14.492;2022-09-09T00:47:25;22.87;;;14.60;;
64688;SDS011;62504;46.070;14.492;2022-09-09T00:58:36;31.60;;;18.50;;
64688;SDS011;62504;46.070;14.492;2022-09-09T01:01:07;37.10;;;21.70;;
64688;SDS011;62504;46.070;14.492;2022-09-09T01:03:37;34.77;;;21.00;;
64688;SDS011;62504;46.070;14.492;2022-09-09T01:06:18;37.17;;;21.50;;
64688;SDS011;62504;46.070;14.492;2022-09-09T01:11:42;36.37;;;20.53;;
64688;SDS011;62504;46.070;14.492;2022-09-09T01:14:50;34.67;;;19.53;;
64688;SDS011;62504;46.070;14.492;2022-09-09T01:17:22;37.00;;;20.27;;
64688;SDS011;62504;46.070;14.492;2022-09-09T01:26:21;52.13;;;25.07;;
64688;SDS011;62504;46.070;14.492;2022-09-09T01:28:50;55.47;;;27.47;;
64688;SDS011;62504;46.070;14.492;2022-09-09T01:31:32;62.63;;;27.53;;
64688;SDS011;62504;46.070;14.492;2022-09-09T01:34:16;52.87;;;26.23;;
64688;SDS011;62504;46.070;14.492;2022-09-09T01:36:46;53.90;;;25.57;;
64688;SDS011;62504;46.070;14.492;2022-09-09T01:39:16;55.97;;;26.60;;
64688;SDS011;62504;46.070;14.492;2022-09-09T01:41:42;58.90;;;26.17;;
64688;SDS011;62504;46.070;14.492;2022-09-09T01:44:08;52.50;;;25.63;;
64688;SDS011;62504;46.070;14.492;2022-09-09T01:46:34;53.80;;;25.90;;
64688;SDS011;62504;46.070;14.492;2022-09-09T01:49:00;52.20;;;25.93;;
64688;SDS011;62504;46.070;14.492;2022-09-09T01:51:28;51.50;;;23.80;;
64688;SDS011;62504;46.070;14.492;2022-09-09T01:53:55;52.27;;;25.60;;
64688;SDS011;62504;46.070;14.492;2022-09-09T02:07:51;57.07;;;31.07;;
64688;SDS011;62504;46.070;14.492;2022-09-09T02:10:48;50.90;;;27.93;;
64688;SDS011;62504;46.070;14.492;2022-09-09T02:13:22;51.63;;;28.70;;
64688;SDS011;62504;46.070;14.492;2022-09-09T02:15:52;58.13;;;31.33;;
64688;SDS011;62504;46.070;14.492;2022-09-09T02:18:34;56.97;;;31.17;;
64688;SDS011;62504;46.070;14.492;2022-09-09T02:21:06;57.97;;;30.97;;
64688;SDS011;62504;46.070;14.492;2022-09-09T02:23:35;58.07;;;31.67;;
64688;SDS011;62504;46.070;14.492;2022-09-09T02:26:01;55.63;;;30.97;;
64688;SDS011;62504;46.070;14.492;2022-09-09T02:28:33;55.93;;;30.53;;
64688;SDS011;62504;46.070;14.492;2022-09-09T02:31:02;59.63;;;31.40;;
64688;SDS011;62504;46.070;14.492;2022-09-09T02:33:28;52.80;;;30.37;;
64688;SDS011;62504;46.070;14.492;2022-09-09T02:35:59;46.33;;;27.07;;
64688;SDS011;62504;46.070;14.492;2022-09-09T02:38:29;50.50;;;27.43;;
64688;SDS011;62504;46.070;14.492;2022-09-09T02:41:00;47.67;;;26.57;;
64688;SDS011;62504;46.070;14.492;2022-09-09T02:43:30;53.33;;;27.33;;
64688;SDS011;62504;46.070;14.492;2022-09-09T02:46:02;48.57;;;25.73;;
64688;SDS011;62504;46.070;14.492;2022-09-09T02:48:59;51.37;;;26.33;;
64688;SDS011;62504;46.070;14.492;2022-09-09T02:51:50;49.17;;;26.00;;
64688;SDS011;62504;46.070;14.492;2022-09-09T02:54:29;49.23;;;25.60;;
64688;SDS011;62504;46.070;14.492;2022-09-09T02:57:19;44.40;;;23.10;;
64688;SDS011;62504;46.070;14.492;2022-09-09T02:59:46;42.47;;;23.07;;
64688;SDS011;62504;46.070;14.492;2022-09-09T03:02:13;44.47;;;22.33;;
64688;SDS011;62504;46.070;14.492;2022-09-09T03:04:39;39.97;;;21.60;;
64688;SDS011;62504;46.070;14.492;2022-09-09T03:07:05;37.07;;;21.73;;
64688;SDS011;62504;46.070;14.492;2022-09-09T03:09:31;40.17;;;21.90;;
64688;SDS011;62504;46.070;14.492;2022-09-09T03:11:57;40.90;;;21.83;;
64688;SDS011;62504;46.070;14.492;2022-09-09T03:14:24;38.03;;;20.93;;
64688;SDS011;62504;46.070;14.492;2022-09-09T03:16:53;37.33;;;20.07;;
64688;SDS011;62504;46.070;14.492;2022-09-09T03:19:19;34.40;;;19.33;;
64688;SDS011;62504;46.070;14.492;2022-09-09T03:21:46;32.40;;;18.97;;
64688;SDS011;62504;46.070;14.492;2022-09-09T03:24:12;32.90;;;18.23;;
64688;SDS011;62504;46.070;14.492;2022-09-09T03:26:39;28.90;;;17.07;;
64688;SDS011;62504;46.070;14.492;2022-09-09T03:29:06;31.67;;;17.50;;
64688;SDS011;62504;46.070;14.492;2022-09-09T03:31:34;29.90;;;16.70;;
64688;SDS011;62504;46.070;14.492;2022-09-09T03:34:01;30.57;;;16.50;;
64688;SDS011;62504;46.070;14.492;2022-09-09T03:36:30;27.33;;;16.33;;
64688;SDS011;62504;46.070;14.492;2022-09-09T03:38:56;29.97;;;15.97;;
64688;SDS011;62504;46.070;14.492;2022-09-09T03:41:22;28.77;;;15.63;;
64688;SDS011;62504;46.070;14.492;2022-09-09T03:43:52;25.03;;;15.10;;
64688;SDS011;62504;46.070;14.492;2022-09-09T03:46:19;27.97;;;15.37;;
64688;SDS011;62504;46.070;14.492;2022-09-09T03:48:45;28.43;;;15.73;;
64688;SDS011;62504;46.070;14.492;2022-09-09T03:51:11;29.90;;;16.43;;
64688;SDS011;62504;46.070;14.492;2022-09-09T03:53:38;24.93;;;15.50;;
64688;SDS011;62504;46.070;14.492;2022-09-09T03:56:04;27.73;;;15.07;;
64688;SDS011;62504;46.070;14.492;2022-09-09T03:58:32;27.07;;;16.33;;
64688;SDS011;62504;46.070;14.492;2022-09-09T04:00:59;30.93;;;16.53;;
64688;SDS011;62504;46.070;14.492;2022-09-09T04:03:27;35.00;;;17.80;;
64688;SDS011;62504;46.070;14.492;2022-09-09T04:05:55;39.30;;;18.40;;
64688;SDS011;62504;46.070;14.492;2022-09-09T04:08:22;30.30;;;17.10;;
64688;SDS011;62504;46.070;14.492;2022-09-09T04:10:50;36.17;;;16.97;;
64688;SDS011;62504;46.070;14.492;2022-09-09T04:13:17;35.03;;;17.03;;
64688;SDS011;62504;46.070;14.492;2022-09-09T04:15:44;33.00;;;17.33;;
64688;SDS011;62504;46.070;14.492;2022-09-09T04:18:15;30.20;;;16.90;;
64688;SDS011;62504;46.070;14.492;2022-09-09T04:20:40;28.23;;;16.10;;
64688;SDS011;62504;46.070;14.492;2022-09-09T04:23:08;26.50;;;15.87;;
64688;SDS011;62504;46.070;14.492;2022-09-09T04:25:34;23.73;;;14.43;;
64688;SDS011;62504;46.070;14.492;2022-09-09T04:27:59;28.17;;;15.83;;
64688;SDS011;62504;46.070;14.492;2022-09-09T04:30:25;24.33;;;14.43;;
64688;SDS011;62504;46.070;14.492;2022-09-09T04:32:52;28.43;;;15.93;;
64688;SDS011;62504;46.070;14.492;2022-09-09T04:35:18;21.60;;;13.10;;
64688;SDS011;62504;46.070;14.492;2022-09-09T04:37:45;22.80;;;12.77;;
64688;SDS011;62504;46.070;14.492;2022-09-09T04:40:11;18.90;;;11.77;;
64688;SDS011;62504;46.070;14.492;2022-09-09T04:42:37;19.57;;;11.67;;
64688;SDS011;62504;46.070;14.492;2022-09-09T04:45:04;20.07;;;11.60;;
64688;SDS011;62504;46.070;14.492;2022-09-09T04:47:33;26.03;;;11.97;;
64688;SDS011;62504;46.070;14.492;2022-09-09T04:50:00;21.70;;;10.90;;
64688;SDS011;62504;46.070;14.492;2022-09-09T04:52:25;15.70;;;9.80;;
64688;SDS011;62504;46.070;14.492;2022-09-09T04:54:51;20.20;;;9.50;;
64688;SDS011;62504;46.070;14.492;2022-09-09T04:57:19;15.13;;;8.73;;
64688;SDS011;62504;46.070;14.492;2022-09-09T04:59:44;15.47;;;8.00;;
64688;SDS011;62504;46.070;14.492;2022-09-09T05:02:10;14.90;;;8.57;;
64688;SDS011;62504;46.070;14.492;2022-09-09T05:04:36;12.40;;;7.00;;
64688;SDS011;62504;46.070;14.492;2022-09-09T05:07:02;13.20;;;7.50;;
64688;SDS011;62504;46.070;14.492;2022-09-09T05:09:28;12.30;;;7.47;;
64688;SDS011;62504;46.070;14.492;2022-09-09T05:11:53;12.63;;;6.80;;
64688;SDS011;62504;46.070;14.492;2022-09-09T05:14:19;11.00;;;7.47;;
64688;SDS011;62504;46.070;14.492;2022-09-09T05:16:45;44.23;;;22.27;;
64688;SDS011;62504;46.070;14.492;2022-09-09T05:19:12;66.17;;;30.47;;
64688;SDS011;62504;46.070;14.492;2022-09-09T05:21:37;14.03;;;7.27;;
64688;SDS011;62504;46.070;14.492;2022-09-09T05:24:03;18.90;;;11.30;;
64688;SDS011;62504;46.070;14.492;2022-09-09T05:26:29;8.80;;;4.60;;
64688;SDS011;62504;46.070;14.492;2022-09-09T05:28:55;8.73;;;4.73;;
64688;SDS011;62504;46.070;14.492;2022-09-09T05:31:21;9.33;;;4.93;;
64688;SDS011;62504;46.070;14.492;2022-09-09T05:33:49;10.27;;;4.37;;
64688;SDS011;62504;46.070;14.492;2022-09-09T05:36:16;9.17;;;4.50;;
64688;SDS011;62504;46.070;14.492;2022-09-09T05:38:43;5.93;;;3.70;;
64688;SDS011;62504;46.070;14.492;2022-09-09T05:41:09;8.33;;;4.20;;
64688;SDS011;62504;46.070;14.492;2022-09-09T05:43:36;5.30;;;3.67;;
64688;SDS011;62504;46.070;14.492;2022-09-09T05:46:10;8.80;;;4.40;;
64688;SDS011;62504;46.070;14.492;2022-09-09T05:48:38;8.50;;;3.90;;
64688;SDS011;62504;46.070;14.492;2022-09-09T05:51:06;5.37;;;3.83;;
64688;SDS011;62504;46.070;14.492;2022-09-09T05:53:37;6.83;;;3.80;;
64688;SDS011;62504;46.070;14.492;2022-09-09T05:56:04;6.50;;;3.60;;
64688;SDS011;62504;46.070;14.492;2022-09-09T05:58:32;7.33;;;3.80;;
64688;SDS011;62504;46.070;14.492;2022-09-09T06:01:05;5.77;;;3.23;;
64688;SDS011;62504;46.070;14.492;2022-09-09T06:03:33;6.77;;;3.57;;
64688;SDS011;62504;46.070;14.492;2022-09-09T06:06:00;7.63;;;3.70;;
64688;SDS011;62504;46.070;14.492;2022-09-09T06:08:30;5.77;;;3.43;;
64688;SDS011;62504;46.070;14.492;2022-09-09T06:11:09;5.57;;;3.53;;
64688;SDS011;62504;46.070;14.492;2022-09-09T06:13:37;5.50;;;3.10;;
64688;SDS011;62504;46.070;14.492;2022-09-09T06:16:04;7.43;;;3.67;;
64688;SDS011;62504;46.070;14.492;2022-09-09T06:18:33;6.80;;;3.97;;
64688;SDS011;62504;46.070;14.492;2022-09-09T06:21:00;5.63;;;4.00;;
64688;SDS011;62504;46.070;14.492;2022-09-09T06:23:28;5.50;;;3.60;;
64688;SDS011;62504;46.070;14.492;2022-09-09T06:26:07;5.37;;;3.73;;
64688;SDS011;62504;46.070;14.492;2022-09-09T06:28:49;6.20;;;4.03;;
64688;SDS011;62504;46.070;14.492;2022-09-09T06:31:18;5.37;;;3.90;;
64688;SDS011;62504;46.070;14.492;2022-09-09T06:33:48;8.80;;;4.00;;
64688;SDS011;62504;46.070;14.492;2022-09-09T06:36:19;8.37;;;3.83;;
64688;SDS011;62504;46.070;14.492;2022-09-09T06:39:05;8.07;;;4.20;;
64688;SDS011;62504;46.070;14.492;2022-09-09T06:41:32;10.07;;;3.87;;
64688;SDS011;62504;46.070;14.492;2022-09-09T06:43:58;9.60;;;4.50;;
64688;SDS011;62504;46.070;14.492;2022-09-09T06:46:25;9.83;;;4.47;;
64688;SDS011;62504;46.070;14.492;2022-09-09T06:48:56;6.57;;;4.00;;
64688;SDS011;62504;46.070;14.492;2022-09-09T06:51:25;8.43;;;3.80;;
64688;SDS011;62504;46.070;14.492;2022-09-09T06:53:58;11.43;;;3.60;;
64688;SDS011;62504;46.070;14.492;2022-09-09T06:56:45;6.77;;;3.43;;
64688;SDS011;62504;46.070;14.492;2022-09-09T06:59:11;5.03;;;3.53;;
64688;SDS011;62504;46.070;14.492;2022-09-09T07:01:40;6.50;;;3.57;;
64688;SDS011;62504;46.070;14.492;2022-09-09T07:04:08;7.93;;;4.87;;
64688;SDS011;62504;46.070;14.492;2022-09-09T07:06:36;7.43;;;4.10;;
64688;SDS011;62504;46.070;14.492;2022-09-09T07:09:04;10.57;;;6.43;;
64688;SDS011;62504;46.070;14.492;2022-09-09T07:11:34;6.47;;;4.30;;
64688;SDS011;62504;46.070;14.492;2022-09-09T07:14:04;7.13;;;4.67;;
64688;SDS011;62504;46.070;14.492;2022-09-09T07:16:29;11.60;;;4.30;;
64688;SDS011;62504;46.070;14.492;2022-09-09T07:18:56;8.80;;;4.97;;
64688;SDS011;62504;46.070;14.492;2022-09-09T07:21:22;12.80;;;4.77;;
64688;SDS011;62504;46.070;14.492;2022-09-09T07:23:51;9.50;;;5.87;;
64688;SDS011;62504;46.070;14.492;2022-09-09T07:26:18;8.30;;;5.70;;
64688;SDS011;62504;46.070;14.492;2022-09-09T07:28:45;9.53;;;5.43;;
64688;SDS011;62504;46.070;14.492;2022-09-09T07:31:19;12.07;;;5.70;;
64688;SDS011;62504;46.070;14.492;2022-09-09T07:33:47;7.53;;;4.13;;
64688;SDS011;62504;46.070;14.492;2022-09-09T07:38:50;10.57;;;3.90;;
64688;SDS011;62504;46.070;14.492;2022-09-09T07:41:24;8.53;;;3.80;;
64688;SDS011;62504;46.070;14.492;2022-09-09T07:44:10;6.50;;;3.67;;
64688;SDS011;62504;46.070;14.492;2022-09-09T07:46:38;5.65;;;3.83;;
64688;SDS011;62504;46.070;14.492;2022-09-09T07:49:07;6.87;;;3.97;;
64688;SDS011;62504;46.070;14.492;2022-09-09T07:51:35;7.73;;;4.10;;
64688;SDS011;62504;46.070;14.492;2022-09-09T07:54:04;7.95;;;4.35;;
64688;SDS011;62504;46.070;14.492;2022-09-09T07:56:31;10.77;;;4.30;;
64688;SDS011;62504;46.070;14.492;2022-09-09T07:58:58;7.33;;;4.93;;
64688;SDS011;62504;46.070;14.492;2022-09-09T08:01:31;9.97;;;5.10;;
64688;SDS011;62504;46.070;14.492;2022-09-09T08:04:03;8.47;;;4.40;;
64688;SDS011;62504;46.070;14.492;2022-09-09T08:06:37;7.63;;;4.25;;
64688;SDS011;62504;46.070;14.492;2022-09-09T08:09:04;7.63;;;4.33;;
64688;SDS011;62504;46.070;14.492;2022-09-09T08:11:31;8.98;;;6.15;;
64688;SDS011;62504;46.070;14.492;2022-09-09T08:13:58;5.60;;;4.40;;
64688;SDS011;62504;46.070;14.492;2022-09-09T08:16:25;9.93;;;5.80;;
64688;SDS011;62504;46.070;14.492;2022-09-09T08:18:52;5.78;;;3.97;;
64688;SDS011;62504;46.070;14.492;2022-09-09T08:21:21;4.40;;;3.83;;
64688;SDS011;62504;46.070;14.492;2022-09-09T08:23:54;6.63;;;4.07;;
64688;SDS011;62504;46.070;14.492;2022-09-09T08:26:22;5.60;;;3.80;;
64688;SDS011;62504;46.070;14.492;2022-09-09T08:28:50;7.65;;;3.65;;
64688;SDS011;62504;46.070;14.492;2022-09-09T08:31:21;5.43;;;3.37;;
64688;SDS011;62504;46.070;14.492;2022-09-09T08:33:53;7.93;;;3.70;;
64688;SDS011;62504;46.070;14.492;2022-09-09T08:36:20;4.73;;;3.37;;
64688;SDS011;62504;46.070;14.492;2022-09-09T08:38:48;5.73;;;3.30;;
64688;SDS011;62504;46.070;14.492;2022-09-09T08:41:27;4.87;;;3.10;;
64688;SDS011;62504;46.070;14.492;2022-09-09T08:44:06;6.23;;;2.80;;
64688;SDS011;62504;46.070;14.492;2022-09-09T08:46:44;7.37;;;3.00;;
64688;SDS011;62504;46.070;14.492;2022-09-09T08:52:16;5.43;;;3.23;;
64688;SDS011;62504;46.070;14.492;2022-09-09T08:54:50;4.67;;;2.93;;
64688;SDS011;62504;46.070;14.492;2022-09-09T08:57:21;5.67;;;3.00;;
64688;SDS011;62504;46.070;14.492;2022-09-09T08:59:52;4.43;;;3.05;;
64688;SDS011;62504;46.070;14.492;2022-09-09T09:13:17;5.32;;;3.05;;
64688;SDS011;62504;46.070;14.492;2022-09-09T09:15:47;3.13;;;2.55;;
64688;SDS011;62504;46.070;14.492;2022-09-09T09:18:17;4.03;;;2.57;;
64688;SDS011;62504;46.070;14.492;2022-09-09T09:23:32;3.30;;;2.55;;
64688;SDS011;62504;46.070;14.492;2022-09-09T09:26:05;6.05;;;2.42;;
64688;SDS011;62504;46.070;14.492;2022-09-09T09:28:33;5.10;;;3.03;;
64688;SDS011;62504;46.070;14.492;2022-09-09T09:31:09;4.88;;;2.90;;
64688;SDS011;62504;46.070;14.492;2022-09-09T09:33:51;6.07;;;3.00;;
64688;SDS011;62504;46.070;14.492;2022-09-09T09:36:19;5.88;;;3.30;;
64688;SDS011;62504;46.070;14.492;2022-09-09T09:38:57;5.55;;;3.17;;
64688;SDS011;62504;46.070;14.492;2022-09-09T09:41:28;6.28;;;2.60;;
64688;SDS011;62504;46.070;14.492;2022-09-09T09:44:04;3.50;;;2.00;;
64688;SDS011;62504;46.070;14.492;2022-09-09T09:46:30;3.30;;;2.10;;
64688;SDS011;62504;46.070;14.492;2022-09-09T09:48:59;5.27;;;2.07;;
64688;SDS011;62504;46.070;14.492;2022-09-09T09:51:30;3.53;;;2.10;;
64688;SDS011;62504;46.070;14.492;2022-09-09T09:56:48;4.70;;;2.42;;
64688;SDS011;62504;46.070;14.492;2022-09-09T10:01:54;32.60;;;17.23;;
64688;SDS011;62504;46.070;14.492;2022-09-09T10:04:31;164.60;;;80.72;;
64688;SDS011;62504;46.070;14.492;2022-09-09T10:06:58;31.88;;;19.08;;
64688;SDS011;62504;46.070;14.492;2022-09-09T10:09:34;8.93;;;3.95;;
64688;SDS011;62504;46.070;14.492;2022-09-09T10:15:06;5.32;;;2.50;;
64688;SDS011;62504;46.070;14.492;2022-09-09T10:18:36;3.70;;;2.20;;
64688;SDS011;62504;46.070;14.492;2022-09-09T10:26:16;4.25;;;2.03;;
64688;SDS011;62504;46.070;14.492;2022-09-09T10:31:37;8.07;;;5.20;;
64688;SDS011;62504;46.070;14.492;2022-09-09T10:36:48;4.55;;;2.67;;
64688;SDS011;62504;46.070;14.492;2022-09-09T10:39:18;3.67;;;2.25;;
64688;SDS011;62504;46.070;14.492;2022-09-09T10:42:08;3.47;;;2.17;;
64688;SDS011;62504;46.070;14.492;2022-09-09T10:53:33;7.00;;;3.05;;
64688;SDS011;62504;46.070;14.492;2022-09-09T10:55:48;4.43;;;2.50;;
64688;SDS011;62504;46.070;14.492;2022-09-09T10:58:25;9.50;;;3.10;;
64688;SDS011;62504;46.070;14.492;2022-09-09T11:00:59;6.63;;;3.08;;
64688;SDS011;62504;46.070;14.492;2022-09-09T11:03:43;9.07;;;4.47;;
64688;SDS011;62504;46.070;14.492;2022-09-09T11:06:16;7.70;;;4.47;;
64688;SDS011;62504;46.070;14.492;2022-09-09T11:08:46;7.23;;;4.20;;
64688;SDS011;62504;46.070;14.492;2022-09-09T11:11:18;7.87;;;3.40;;
64688;SDS011;62504;46.070;14.492;2022-09-09T11:14:08;12.37;;;5.93;;
64688;SDS011;62504;46.070;14.492;2022-09-09T11:16:57;12.33;;;4.20;;
64688;SDS011;62504;46.070;14.492;2022-09-09T11:21:59;7.20;;;3.50;;
64688;SDS011;62504;46.070;14.492;2022-09-09T11:24:41;7.97;;;3.80;;
64688;SDS011;62504;46.070;14.492;2022-09-09T11:27:23;6.07;;;3.40;;
64688;SDS011;62504;46.070;14.492;2022-09-09T11:35:31;7.43;;;3.60;;
64688;SDS011;62504;46.070;14.492;2022-09-09T11:38:19;8.80;;;5.03;;
64688;SDS011;62504;46.070;14.492;2022-09-09T11:43:29;6.70;;;3.30;;
64688;SDS011;62504;46.070;14.492;2022-09-09T11:45:58;6.23;;;3.13;;
64688;SDS011;62504;46.070;14.492;2022-09-09T11:51:07;4.37;;;3.30;;
64688;SDS011;62504;46.070;14.492;2022-09-09T11:53:54;7.13;;;3.23;;
64688;SDS011;62504;46.070;14.492;2022-09-09T11:58:57;5.93;;;3.00;;
64688;SDS011;62504;46.070;14.492;2022-09-09T12:04:28;8.23;;;4.40;;
64688;SDS011;62504;46.070;14.492;2022-09-09T12:07:21;5.80;;;3.37;;
64688;SDS011;62504;46.070;14.492;2022-09-09T12:10:00;6.60;;;3.87;;
64688;SDS011;62504;46.070;14.492;2022-09-09T12:12:44;7.70;;;4.03;;
64688;SDS011;62504;46.070;14.492;2022-09-09T12:17:42;7.33;;;4.43;;
64688;SDS011;62504;46.070;14.492;2022-09-09T12:33:45;4.57;;;3.40;;
64688;SDS011;62504;46.070;14.492;2022-09-09T12:36:16;5.37;;;3.70;;
64688;SDS011;62504;46.070;14.492;2022-09-09T12:38:53;6.63;;;4.13;;
64688;SDS011;62504;46.070;14.492;2022-09-09T12:41:26;4.40;;;3.77;;
64688;SDS011;62504;46.070;14.492;2022-09-09T12:44:06;8.20;;;3.80;;
64688;SDS011;62504;46.070;14.492;2022-09-09T12:46:43;6.97;;;4.30;;
64688;SDS011;62504;46.070;14.492;2022-09-09T12:52:04;6.07;;;3.60;;
64688;SDS011;62504;46.070;14.492;2022-09-09T12:54:43;6.83;;;4.07;;
64688;SDS011;62504;46.070;14.492;2022-09-09T12:57:12;7.57;;;4.43;;
64688;SDS011;62504;46.070;14.492;2022-09-09T12:59:39;7.27;;;4.50;;
64688;SDS011;62504;46.070;14.492;2022-09-09T13:02:17;7.50;;;4.17;;
64688;SDS011;62504;46.070;14.492;2022-09-09T13:04:47;6.97;;;4.30;;
64688;SDS011;62504;46.070;14.492;2022-09-09T13:07:15;5.87;;;4.20;;
64688;SDS011;62504;46.070;14.492;2022-09-09T13:09:41;6.27;;;4.10;;
64688;SDS011;62504;46.070;14.492;2022-09-09T13:12:18;5.20;;;4.07;;
64688;SDS011;62504;46.070;14.492;2022-09-09T13:14:47;6.35;;;4.30;;
64688;SDS011;62504;46.070;14.492;2022-09-09T13:17:22;8.50;;;4.70;;
64688;SDS011;62504;46.070;14.492;2022-09-09T13:19:50;7.00;;;4.90;;
64688;SDS011;62504;46.070;14.492;2022-09-09T13:24:59;7.60;;;5.13;;
64688;SDS011;62504;46.070;14.492;2022-09-09T13:27:50;63.77;;;30.57;;
64688;SDS011;62504;46.070;14.492;2022-09-09T13:30:28;20.73;;;11.70;;
64688;SDS011;62504;46.070;14.492;2022-09-09T13:35:55;15.40;;;10.13;;
64688;SDS011;62504;46.070;14.492;2022-09-09T13:38:23;7.07;;;4.50;;
64688;SDS011;62504;46.070;14.492;2022-09-09T13:40:53;18.73;;;12.77;;
64688;SDS011;62504;46.070;14.492;2022-09-09T13:43:22;45.50;;;27.00;;
64688;SDS011;62504;46.070;14.492;2022-09-09T13:45:56;6.80;;;4.45;;
64688;SDS011;62504;46.070;14.492;2022-09-09T13:48:24;11.60;;;5.95;;
64688;SDS011;62504;46.070;14.492;2022-09-09T13:50:54;5.88;;;4.50;;
64688;SDS011;62504;46.070;14.492;2022-09-09T13:53:25;6.65;;;4.55;;
64688;SDS011;62504;46.070;14.492;2022-09-09T13:55:50;7.90;;;5.43;;
64688;SDS011;62504;46.070;14.492;2022-09-09T13:58:17;4.97;;;4.25;;
64688;SDS011;62504;46.070;14.492;2022-09-09T14:00:44;7.82;;;4.60;;
64688;SDS011;62504;46.070;14.492;2022-09-09T14:03:10;8.07;;;4.63;;
64688;SDS011;62504;46.070;14.492;2022-09-09T14:05:36;6.72;;;4.47;;
64688;SDS011;62504;46.070;14.492;2022-09-09T14:08:06;8.13;;;4.30;;
64688;SDS011;62504;46.070;14.492;2022-09-09T14:10:33;8.00;;;4.00;;
64688;SDS011;62504;46.070;14.492;2022-09-09T14:13:02;7.30;;;4.25;;
64688;SDS011;62504;46.070;14.492;2022-09-09T14:15:28;9.23;;;4.38;;
64688;SDS011;62504;46.070;14.492;2022-09-09T14:17:54;5.45;;;3.88;;
64688;SDS011;62504;46.070;14.492;2022-09-09T14:20:19;6.15;;;4.53;;
64688;SDS011;62504;46.070;14.492;2022-09-09T14:22:45;11.25;;;5.88;;
64688;SDS011;62504;46.070;14.492;2022-09-09T14:25:11;7.70;;;4.90;;
64688;SDS011;62504;46.070;14.492;2022-09-09T14:27:38;10.18;;;4.93;;
64688;SDS011;62504;46.070;14.492;2022-09-09T14:30:04;7.78;;;4.55;;
64688;SDS011;62504;46.070;14.492;2022-09-09T14:32:31;6.20;;;4.50;;
64688;SDS011;62504;46.070;14.492;2022-09-09T14:34:56;6.03;;;4.50;;
64688;SDS011;62504;46.070;14.492;2022-09-09T14:37:22;5.80;;;4.13;;
64688;SDS011;62504;46.070;14.492;2022-09-09T14:39:48;5.70;;;4.28;;
64688;SDS011;62504;46.070;14.492;2022-09-09T14:42:15;5.18;;;4.03;;
64688;SDS011;62504;46.070;14.492;2022-09-09T14:44:41;6.45;;;3.92;;
64688;SDS011;62504;46.070;14.492;2022-09-09T14:47:07;7.13;;;3.83;;
64688;SDS011;62504;46.070;14.492;2022-09-09T14:49:33;5.22;;;3.72;;
64688;SDS011;62504;46.070;14.492;2022-09-09T14:52:00;8.23;;;5.25;;
64688;SDS011;62504;46.070;14.492;2022-09-09T14:54:26;7.20;;;4.68;;
64688;SDS011;62504;46.070;14.492;2022-09-09T14:56:51;7.35;;;4.85;;
64688;SDS011;62504;46.070;14.492;2022-09-09T14:59:17;5.03;;;4.28;;
64688;SDS011;62504;46.070;14.492;2022-09-09T15:01:42;6.32;;;4.40;;
64688;SDS011;62504;46.070;14.492;2022-09-09T15:04:10;6.75;;;4.53;;
64688;SDS011;62504;46.070;14.492;2022-09-09T15:06:37;6.90;;;4.50;;
64688;SDS011;62504;46.070;14.492;2022-09-09T15:09:04;11.13;;;6.90;;
64688;SDS011;62504;46.070;14.492;2022-09-09T15:11:31;8.70;;;5.18;;
64688;SDS011;62504;46.070;14.492;2022-09-09T15:14:02;8.00;;;4.50;;
64688;SDS011;62504;46.070;14.492;2022-09-09T15:16:28;8.48;;;5.28;;
64688;SDS011;62504;46.070;14.492;2022-09-09T15:18:56;7.70;;;3.65;;
64688;SDS011;62504;46.070;14.492;2022-09-09T15:21:24;5.47;;;3.90;;
64688;SDS011;62504;46.070;14.492;2022-09-09T15:23:51;5.35;;;3.05;;
64688;SDS011;62504;46.070;14.492;2022-09-09T15:26:18;4.88;;;3.08;;
64688;SDS011;62504;46.070;14.492;2022-09-09T15:28:44;7.85;;;3.88;;
64688;SDS011;62504;46.070;14.492;2022-09-09T15:31:21;8.07;;;3.70;;
64688;SDS011;62504;46.070;14.492;2022-09-09T15:33:49;5.55;;;3.53;;
64688;SDS011;62504;46.070;14.492;2022-09-09T15:36:17;9.85;;;5.97;;
64688;SDS011;62504;46.070;14.492;2022-09-09T15:38:49;6.35;;;3.55;;
64688;SDS011;62504;46.070;14.492;2022-09-09T15:41:15;4.60;;;2.73;;
64688;SDS011;62504;46.070;14.492;2022-09-09T15:43:45;7.88;;;5.07;;
64688;SDS011;62504;46.070;14.492;2022-09-09T15:46:23;7.03;;;3.65;;
64688;SDS011;62504;46.070;14.492;2022-09-09T15:48:55;5.15;;;3.70;;
64688;SDS011;62504;46.070;14.492;2022-09-09T15:51:28;6.68;;;3.30;;
64688;SDS011;62504;46.070;14.492;2022-09-09T15:53:55;4.53;;;3.33;;
64688;SDS011;62504;46.070;14.492;2022-09-09T15:56:23;4.90;;;2.97;;
64688;SDS011;62504;46.070;14.492;2022-09-09T15:58:49;6.10;;;3.40;;
64688;SDS011;62504;46.070;14.492;2022-09-09T16:01:16;6.93;;;3.70;;
64688;SDS011;62504;46.070;14.492;2022-09-09T16:03:44;8.50;;;3.88;;
64688;SDS011;62504;46.070;14.492;2022-09-09T16:06:15;8.27;;;4.00;;
64688;SDS011;62504;46.070;14.492;2022-09-09T16:08:46;5.55;;;3.65;;
64688;SDS011;62504;46.070;14.492;2022-09-09T16:11:18;8.43;;;3.77;;
64688;SDS011;62504;46.070;14.492;2022-09-09T16:13:50;8.75;;;4.10;;
64688;SDS011;62504;46.070;14.492;2022-09-09T16:16:17;6.03;;;3.92;;
64688;SDS011;62504;46.070;14.492;2022-09-09T16:18:47;7.80;;;3.80;;
64688;SDS011;62504;46.070;14.492;2022-09-09T16:21:22;4.88;;;3.25;;
64688;SDS011;62504;46.070;14.492;2022-09-09T16:23:50;5.88;;;3.30;;
64688;SDS011;62504;46.070;14.492;2022-09-09T16:26:18;10.18;;;6.65;;
64688;SDS011;62504;46.070;14.492;2022-09-09T16:28:45;10.35;;;5.07;;
64688;SDS011;62504;46.070;14.492;2022-09-09T16:31:16;8.05;;;4.57;;
64688;SDS011;62504;46.070;14.492;2022-09-09T16:33:46;7.65;;;4.30;;
64688;SDS011;62504;46.070;14.492;2022-09-09T16:36:13;5.82;;;3.70;;
64688;SDS011;62504;46.070;14.492;2022-09-09T16:38:41;13.80;;;7.75;;
64688;SDS011;62504;46.070;14.492;2022-09-09T16:41:08;6.30;;;4.20;;
64688;SDS011;62504;46.070;14.492;2022-09-09T16:43:34;4.45;;;3.90;;
64688;SDS011;62504;46.070;14.492;2022-09-09T16:46:02;8.00;;;4.25;;
64688;SDS011;62504;46.070;14.492;2022-09-09T16:48:49;5.13;;;3.70;;
64688;SDS011;62504;46.070;14.492;2022-09-09T16:51:19;6.15;;;3.97;;
64688;SDS011;62504;46.070;14.492;2022-09-09T16:53:45;6.45;;;4.32;;
64688;SDS011;62504;46.070;14.492;2022-09-09T16:56:14;6.32;;;4.20;;
64688;SDS011;62504;46.070;14.492;2022-09-09T16:58:49;139.60;;;67.03;;
64688;SDS011;62504;46.070;14.492;2022-09-09T17:01:16;49.15;;;25.00;;
64688;SDS011;62504;46.070;14.492;2022-09-09T17:03:41;473.17;;;235.95;;